Time;durP1;ratioP1;P1;durP2;ratioP2;P2;SDS_P1;SDS_P2;PMS_P1;PMS_P2;Temp;Humidity;BMP_temperature;BMP_pressure;BME280_temperature;BME280_humidity;BME280_pressure;Samples;Min_cycle;Max_cycle;Signal;HPM_P1;HPM_P2
2022/02/24 00:00:20;;;;;;;9.23;8.43;;;5.00;99.90;;;;;;4993199;28;20052;-73
2022/02/24 00:02:47;;;;;;;8.40;6.82;;;5.00;99.90;;;;;;5007180;28;20062;-71
2022/02/24 00:05:15;;;;;;;11.80;6.97;;;4.90;99.90;;;;;;4989945;28;20601;-70
2022/02/24 00:07:42;;;;;;;10.98;7.50;;;5.00;99.90;;;;;;4990625;28;20050;-71
2022/02/24 00:10:11;;;;;;;7.95;7.05;;;5.00;99.90;;;;;;4985697;28;20108;-73
2022/02/24 00:12:39;;;;;;;7.65;6.95;;;5.00;99.90;;;;;;4990741;28;20073;-73
2022/02/24 00:15:06;;;;;;;10.18;7.80;;;5.00;99.90;;;;;;4991393;28;20505;-71
2022/02/24 00:17:34;;;;;;;13.10;7.97;;;5.00;99.90;;;;;;4991731;28;20096;-72
2022/02/24 00:20:01;;;;;;;8.48;7.72;;;5.00;99.90;;;;;;4987779;28;20612;-71
2022/02/24 00:22:28;;;;;;;10.10;8.00;;;5.00;99.90;;;;;;4991980;28;20069;-74
2022/02/24 00:24:55;;;;;;;13.15;9.23;;;5.00;99.90;;;;;;4988837;28;20105;-71
2022/02/24 00:27:22;;;;;;;9.20;7.50;;;5.00;99.90;;;;;;4990669;28;20273;-73
2022/02/24 00:29:49;;;;;;;12.30;8.05;;;5.00;99.90;;;;;;4974380;28;20046;-74
2022/02/24 00:32:17;;;;;;;8.88;7.13;;;5.00;99.90;;;;;;4991599;28;20128;-73
2022/02/24 00:34:43;;;;;;;10.82;7.65;;;5.00;99.90;;;;;;4992653;28;20077;-70
2022/02/24 00:37:11;;;;;;;15.88;7.97;;;5.00;99.90;;;;;;4990849;28;20042;-73
2022/02/24 00:39:38;;;;;;;9.70;7.65;;;5.00;99.90;;;;;;4988697;28;20117;-69
2022/02/24 00:42:05;;;;;;;9.80;7.90;;;5.00;99.90;;;;;;5002067;28;20050;-70
2022/02/24 00:44:32;;;;;;;15.07;8.98;;;5.10;99.90;;;;;;4991980;28;20050;-71
2022/02/24 00:46:59;;;;;;;11.68;8.50;;;5.10;99.90;;;;;;4990538;28;20050;-72
2022/02/24 00:49:26;;;;;;;14.95;8.45;;;5.10;99.90;;;;;;4991722;28;20042;-72
2022/02/24 00:51:53;;;;;;;11.25;8.48;;;5.10;99.90;;;;;;4990152;28;20041;-70
2022/02/24 00:54:20;;;;;;;12.70;7.95;;;5.10;99.90;;;;;;4989651;28;20160;-73
2022/02/24 00:56:46;;;;;;;10.10;8.93;;;5.10;99.90;;;;;;4991201;28;20073;-69
2022/02/24 00:59:14;;;;;;;12.27;7.88;;;5.10;99.90;;;;;;4987862;28;20503;-69
2022/02/24 01:01:42;;;;;;;9.65;7.78;;;5.10;99.90;;;;;;4989875;28;20050;-72
2022/02/24 01:04:09;;;;;;;8.98;7.68;;;5.20;99.90;;;;;;4992261;28;20061;-72
2022/02/24 01:06:36;;;;;;;9.45;7.43;;;5.10;99.90;;;;;;4991364;28;20050;-70
2022/02/24 01:09:03;;;;;;;13.18;7.70;;;5.20;99.90;;;;;;4990045;28;20042;-72
2022/02/24 01:11:30;;;;;;;11.57;8.43;;;5.20;99.90;;;;;;4986607;28;20038;-74
2022/02/24 01:13:56;;;;;;;10.45;8.30;;;5.10;99.90;;;;;;4989843;28;20062;-73
2022/02/24 01:16:26;;;;;;;12.43;8.85;;;5.20;99.90;;;;;;4991044;28;20377;-70
2022/02/24 01:18:53;;;;;;;16.52;8.18;;;5.10;99.90;;;;;;4988378;28;20053;-72
2022/02/24 01:21:20;;;;;;;9.20;8.27;;;5.20;99.90;;;;;;4991568;28;20116;-70
2022/02/24 01:23:47;;;;;;;12.05;8.57;;;5.10;99.90;;;;;;4990833;28;20322;-71
2022/02/24 01:26:14;;;;;;;9.20;8.10;;;5.20;99.90;;;;;;4987827;28;20050;-72
2022/02/24 01:28:41;;;;;;;16.90;8.27;;;5.20;99.90;;;;;;4991540;28;20605;-71
2022/02/24 01:31:07;;;;;;;14.32;8.77;;;5.20;99.90;;;;;;4990885;28;20042;-75
2022/02/24 01:33:34;;;;;;;9.45;8.00;;;5.20;99.90;;;;;;4990028;28;20543;-73
2022/02/24 01:36:01;;;;;;;13.90;8.35;;;5.20;99.90;;;;;;4991803;28;20053;-72
2022/02/24 01:38:28;;;;;;;11.90;7.78;;;5.20;99.90;;;;;;4989284;28;20038;-73
2022/02/24 01:40:55;;;;;;;13.13;7.60;;;5.20;99.90;;;;;;4988536;28;20100;-73
2022/02/24 01:43:21;;;;;;;10.45;7.88;;;5.20;99.90;;;;;;4992114;28;20049;-74
2022/02/24 01:45:48;;;;;;;12.70;8.18;;;5.20;99.90;;;;;;4988954;28;20199;-72
2022/02/24 01:48:15;;;;;;;9.80;7.45;;;5.20;99.90;;;;;;4991387;28;20054;-74
2022/02/24 01:50:42;;;;;;;17.27;8.52;;;5.20;99.90;;;;;;4990997;28;20042;-74
2022/02/24 01:53:10;;;;;;;14.57;7.50;;;5.20;99.90;;;;;;4991691;28;20925;-73
2022/02/24 01:55:37;;;;;;;11.25;8.23;;;5.20;99.90;;;;;;4990203;28;20049;-74
2022/02/24 01:58:04;;;;;;;11.23;7.75;;;5.20;99.90;;;;;;5008591;28;20218;-74
2022/02/24 02:00:31;;;;;;;14.55;8.32;;;5.20;99.90;;;;;;4993374;28;20046;-73
2022/02/24 02:02:58;;;;;;;8.50;7.40;;;5.20;99.90;;;;;;4993456;28;20050;-73
2022/02/24 02:05:25;;;;;;;10.00;7.47;;;5.20;99.90;;;;;;4994415;28;22278;-74
2022/02/24 02:07:52;;;;;;;15.93;8.13;;;5.20;99.90;;;;;;4992169;28;20204;-75
2022/02/24 02:10:21;;;;;;;14.20;7.65;;;5.30;99.90;;;;;;4991308;28;20310;-73
2022/02/24 02:12:55;;;;;;;10.98;7.93;;;5.30;99.90;;;;;;5003927;28;20111;-74
2022/02/24 02:15:22;;;;;;;14.00;8.13;;;5.30;99.90;;;;;;4997163;28;20269;-73
2022/02/24 02:17:50;;;;;;;8.70;8.00;;;5.30;99.90;;;;;;4993609;28;20041;-72
2022/02/24 02:20:19;;;;;;;11.55;8.40;;;5.40;99.90;;;;;;4993474;28;20049;-74
2022/02/24 02:22:50;;;;;;;8.65;7.95;;;5.50;99.90;;;;;;4994132;28;20057;-74
2022/02/24 02:25:20;;;;;;;11.15;9.18;;;5.60;99.90;;;;;;4992817;28;20054;-73
2022/02/24 02:27:49;;;;;;;17.65;8.82;;;5.70;99.90;;;;;;4992870;28;20157;-73
2022/02/24 02:30:17;;;;;;;11.93;8.52;;;5.80;99.90;;;;;;4994486;28;20073;-73
2022/02/24 02:32:44;;;;;;;12.02;9.50;;;5.80;99.90;;;;;;4991866;28;20049;-73
2022/02/24 02:35:11;;;;;;;11.88;9.52;;;5.90;99.90;;;;;;4992036;28;20053;-74
2022/02/24 02:37:40;;;;;;;10.63;9.50;;;5.90;99.90;;;;;;4993320;28;20511;-70
2022/02/24 02:40:08;;;;;;;10.93;9.88;;;5.90;99.90;;;;;;5003615;28;20117;-74
2022/02/24 02:42:35;;;;;;;11.90;10.68;;;6.00;99.90;;;;;;4991998;28;20181;-73
2022/02/24 02:45:04;;;;;;;10.57;9.77;;;6.00;99.90;;;;;;4993682;28;20093;-74
2022/02/24 02:47:31;;;;;;;12.38;10.00;;;6.00;99.90;;;;;;4993096;28;20525;-71
2022/02/24 02:49:58;;;;;;;12.73;10.63;;;6.10;99.90;;;;;;4987543;28;20174;-74
2022/02/24 02:52:25;;;;;;;12.23;10.93;;;6.10;99.90;;;;;;4993052;28;20038;-75
2022/02/24 02:55:01;;;;;;;14.80;9.80;;;6.00;99.90;;;;;;4991433;28;20049;-72
2022/02/24 02:57:28;;;;;;;10.75;9.60;;;6.00;99.90;;;;;;4993566;28;20050;-71
2022/02/24 02:59:56;;;;;;;10.50;9.43;;;5.90;99.90;;;;;;4993035;28;20057;-72
2022/02/24 03:02:22;;;;;;;11.40;9.40;;;6.00;99.90;;;;;;4991127;28;20115;-75
2022/02/24 03:04:50;;;;;;;10.00;9.13;;;6.00;99.90;;;;;;4991505;28;20164;-74
2022/02/24 03:07:18;;;;;;;9.93;9.05;;;6.00;99.90;;;;;;4992286;28;20042;-74
2022/02/24 03:09:48;;;;;;;11.35;10.00;;;6.10;99.90;;;;;;4988770;28;20625;-72
2022/02/24 03:12:16;;;;;;;13.30;9.73;;;6.10;99.90;;;;;;4992254;28;20135;-73
2022/02/24 03:14:44;;;;;;;14.63;10.10;;;6.00;99.90;;;;;;4990202;28;20073;-75
2022/02/24 03:17:12;;;;;;;10.70;9.65;;;6.10;99.90;;;;;;4990865;28;20256;-73
2022/02/24 03:19:39;;;;;;;12.15;9.20;;;6.10;99.90;;;;;;4990244;28;20072;-73
2022/02/24 03:22:11;;;;;;;10.02;8.98;;;6.20;99.90;;;;;;4992064;28;20046;-74
2022/02/24 03:24:38;;;;;;;9.75;8.88;;;6.20;99.90;;;;;;4990946;28;20493;-72
2022/02/24 03:27:05;;;;;;;10.77;9.65;;;6.30;99.90;;;;;;4977623;28;20050;-75
2022/02/24 03:29:33;;;;;;;10.95;10.05;;;6.50;99.90;;;;;;4992390;28;20065;-74
2022/02/24 03:32:00;;;;;;;12.90;11.60;;;6.60;99.90;;;;;;4990606;28;20134;-75
2022/02/24 03:34:29;;;;;;;18.23;10.40;;;6.60;99.90;;;;;;4990181;28;20340;-74
2022/02/24 03:36:56;;;;;;;12.35;10.82;;;6.70;99.90;;;;;;4989718;28;20050;-72
2022/02/24 03:39:23;;;;;;;11.43;10.27;;;6.70;99.90;;;;;;4990221;28;20049;-73
2022/02/24 03:41:51;;;;;;;13.18;11.63;;;6.70;99.90;;;;;;5004072;28;20096;-73
2022/02/24 03:44:18;;;;;;;15.18;11.30;;;6.80;99.90;;;;;;4992275;28;20276;-75
2022/02/24 03:46:45;;;;;;;11.88;10.57;;;6.80;99.90;;;;;;4991191;28;20042;-72
2022/02/24 03:49:12;;;;;;;11.93;10.75;;;6.80;99.90;;;;;;4991944;28;20340;-74
2022/02/24 03:51:39;;;;;;;11.50;10.30;;;6.80;99.90;;;;;;4991000;28;20463;-72
2022/02/24 03:54:06;;;;;;;12.05;10.90;;;6.70;99.90;;;;;;4990329;28;20049;-73
2022/02/24 03:56:33;;;;;;;13.85;11.10;;;6.60;99.90;;;;;;4990690;28;20096;-72
2022/02/24 03:59:02;;;;;;;13.75;10.55;;;6.60;99.90;;;;;;4992583;28;20050;-71
2022/02/24 04:01:28;;;;;;;17.55;11.43;;;6.50;99.90;;;;;;4990332;28;20081;-72
2022/02/24 04:03:55;;;;;;;12.75;11.00;;;6.50;99.90;;;;;;4990254;28;20106;-73
2022/02/24 04:06:22;;;;;;;13.73;10.50;;;6.50;99.90;;;;;;4990964;28;20042;-74
2022/02/24 04:08:49;;;;;;;12.10;10.07;;;6.50;99.90;;;;;;4991794;28;20053;-72
2022/02/24 04:11:16;;;;;;;12.23;11.05;;;6.50;99.90;;;;;;4989477;28;20048;-75
2022/02/24 04:13:43;;;;;;;14.38;10.38;;;6.40;99.90;;;;;;4992310;28;20042;-74
2022/02/24 04:16:10;;;;;;;11.93;10.73;;;6.40;99.90;;;;;;4990556;28;20576;-76
2022/02/24 04:18:36;;;;;;;11.88;10.27;;;6.40;99.90;;;;;;4989344;28;20042;-75
2022/02/24 04:21:03;;;;;;;13.75;11.52;;;6.30;99.90;;;;;;4991458;28;20041;-73
2022/02/24 04:23:30;;;;;;;14.70;10.93;;;6.40;99.90;;;;;;4991804;28;20495;-73
2022/02/24 04:25:57;;;;;;;12.65;10.32;;;6.40;99.90;;;;;;4991280;28;20080;-74
2022/02/24 04:28:24;;;;;;;11.88;10.82;;;6.40;99.90;;;;;;4990192;28;20061;-72
2022/02/24 04:30:51;;;;;;;11.82;10.73;;;6.40;99.90;;;;;;4991523;28;20135;-74
2022/02/24 04:33:18;;;;;;;14.57;10.90;;;6.40;99.90;;;;;;4992003;28;20141;-73
2022/02/24 04:35:45;;;;;;;13.30;11.27;;;6.40;99.90;;;;;;4996855;28;20038;-73
2022/02/24 04:38:12;;;;;;;15.95;11.05;;;6.40;99.90;;;;;;4998044;28;20060;-74
2022/02/24 04:40:39;;;;;;;12.45;10.60;;;6.40;99.90;;;;;;4989105;28;20049;-73
2022/02/24 04:43:06;;;;;;;12.43;11.30;;;6.50;99.90;;;;;;4969969;28;20107;-73
2022/02/24 04:45:32;;;;;;;14.77;11.27;;;6.40;99.90;;;;;;4990175;28;20070;-71
2022/02/24 04:47:59;;;;;;;16.10;12.93;;;6.40;99.90;;;;;;4990947;28;20049;-72
2022/02/24 04:50:26;;;;;;;13.65;11.52;;;6.50;99.90;;;;;;4991189;28;20042;-74
2022/02/24 04:52:53;;;;;;;12.82;11.43;;;6.50;99.90;;;;;;4991075;28;20596;-72
2022/02/24 04:55:19;;;;;;;11.82;10.75;;;6.40;99.90;;;;;;4992184;28;20954;-73
2022/02/24 04:57:46;;;;;;;11.95;10.95;;;6.40;99.90;;;;;;4990057;28;20046;-74
2022/02/24 05:00:14;;;;;;;20.08;11.07;;;6.40;99.90;;;;;;4991513;28;20054;-74
2022/02/24 05:02:41;;;;;;;11.57;10.55;;;6.40;99.90;;;;;;4992273;28;20544;-73
2022/02/24 05:05:08;;;;;;;13.27;11.05;;;6.50;99.90;;;;;;4990835;28;20042;-74
2022/02/24 05:07:34;;;;;;;18.63;11.02;;;6.50;99.90;;;;;;4989669;28;20321;-73
2022/02/24 05:10:03;;;;;;;12.85;11.60;;;6.50;99.90;;;;;;4988224;28;20417;-73
2022/02/24 05:12:29;;;;;;;20.70;11.82;;;6.50;99.90;;;;;;4990077;28;20078;-74
2022/02/24 05:14:56;;;;;;;13.57;10.23;;;6.50;99.90;;;;;;4991196;28;20521;-73
2022/02/24 05:17:23;;;;;;;11.82;10.70;;;6.50;99.90;;;;;;4988478;28;20042;-72
2022/02/24 05:19:50;;;;;;;13.25;11.82;;;6.50;99.90;;;;;;4989958;28;20053;-74
2022/02/24 05:22:17;;;;;;;13.68;11.27;;;6.60;99.90;;;;;;4992537;28;20056;-72
2022/02/24 05:24:43;;;;;;;11.73;10.50;;;6.60;99.90;;;;;;4992031;28;20124;-76
2022/02/24 05:27:11;;;;;;;12.40;11.07;;;6.60;99.90;;;;;;4990335;28;20058;-74
2022/02/24 05:29:38;;;;;;;12.88;11.80;;;6.60;99.90;;;;;;4991651;28;20064;-74
2022/02/24 05:32:05;;;;;;;15.32;11.85;;;6.70;99.90;;;;;;4993635;28;20354;-72
2022/02/24 05:34:32;;;;;;;13.77;12.07;;;6.70;99.90;;;;;;4996292;28;20069;-75
2022/02/24 05:36:59;;;;;;;15.45;12.02;;;6.60;99.90;;;;;;4994760;28;20515;-76
2022/02/24 05:39:26;;;;;;;13.63;11.65;;;6.70;99.90;;;;;;4992300;28;20096;-75
2022/02/24 05:41:53;;;;;;;13.32;11.93;;;6.70;99.90;;;;;;4991685;28;20057;-78
2022/02/24 05:44:20;;;;;;;13.98;12.55;;;6.70;99.90;;;;;;4995648;28;20042;-76
2022/02/24 05:46:47;;;;;;;15.48;11.90;;;6.70;99.90;;;;;;4995348;28;20143;-76
2022/02/24 05:49:15;;;;;;;13.45;12.43;;;6.70;99.90;;;;;;4996837;28;20443;-75
2022/02/24 05:51:42;;;;;;;12.98;11.90;;;6.80;99.90;;;;;;4997549;28;20053;-76
2022/02/24 05:54:10;;;;;;;13.50;12.52;;;6.80;99.90;;;;;;4994730;28;20151;-74
2022/02/24 05:56:37;;;;;;;13.68;12.32;;;6.80;99.90;;;;;;4994514;28;20053;-75
2022/02/24 05:59:05;;;;;;;13.60;12.00;;;6.80;99.90;;;;;;4994037;28;20124;-73
2022/02/24 06:01:31;;;;;;;13.00;11.80;;;6.80;99.90;;;;;;4994069;28;20335;-75
2022/02/24 06:03:58;;;;;;;16.73;12.32;;;6.70;99.90;;;;;;4994911;28;20136;-75
2022/02/24 06:06:25;;;;;;;16.38;13.48;;;6.70;99.90;;;;;;4978818;28;20038;-74
2022/02/24 06:08:52;;;;;;;14.02;12.50;;;6.60;99.90;;;;;;4994593;28;20046;-75
2022/02/24 06:11:19;;;;;;;14.43;13.13;;;6.50;99.90;;;;;;4993468;28;20037;-76
2022/02/24 06:13:46;;;;;;;18.67;12.82;;;6.50;99.90;;;;;;4997381;28;20058;-75
2022/02/24 06:16:13;;;;;;;14.02;12.60;;;6.50;99.90;;;;;;4992522;28;20076;-76
2022/02/24 06:18:41;;;;;;;12.95;11.98;;;6.60;99.90;;;;;;4994466;28;20148;-75
2022/02/24 06:21:08;;;;;;;17.17;11.65;;;6.50;99.90;;;;;;4995306;28;20057;-74
2022/02/24 06:23:35;;;;;;;13.00;11.38;;;6.40;99.90;;;;;;4996821;28;20081;-76
2022/02/24 06:26:02;;;;;;;13.45;12.15;;;6.30;99.90;;;;;;4994531;28;20716;-74
2022/02/24 06:28:30;;;;;;;13.85;10.85;;;6.20;99.90;;;;;;4995411;28;20053;-75
2022/02/24 06:30:57;;;;;;;17.05;11.25;;;6.10;99.90;;;;;;4993743;28;20814;-78
2022/02/24 06:33:23;;;;;;;14.50;10.38;;;6.10;99.90;;;;;;4993800;28;20584;-76
2022/02/24 06:35:50;;;;;;;13.50;10.85;;;6.00;99.90;;;;;;4978052;28;20100;-77
2022/02/24 06:38:17;;;;;;;16.42;11.05;;;6.00;99.90;;;;;;4977251;28;20139;-75
2022/02/24 06:40:44;;;;;;;14.55;10.68;;;6.00;99.90;;;;;;4992529;28;20038;-75
2022/02/24 06:43:11;;;;;;;13.05;10.00;;;5.90;99.90;;;;;;4992471;28;20054;-76
2022/02/24 06:45:37;;;;;;;16.95;9.93;;;5.90;99.90;;;;;;4993016;28;20154;-75
2022/02/24 06:48:05;;;;;;;13.02;11.35;;;5.90;99.90;;;;;;4992512;28;20046;-75
2022/02/24 06:50:32;;;;;;;13.68;12.40;;;5.90;99.90;;;;;;4994040;28;20069;-75
2022/02/24 06:53:00;;;;;;;15.23;12.15;;;5.80;99.90;;;;;;4992544;28;20647;-78
2022/02/24 06:55:28;;;;;;;14.68;10.95;;;5.90;99.90;;;;;;4991440;28;20045;-72
2022/02/24 06:57:55;;;;;;;18.15;11.00;;;5.80;99.90;;;;;;4992074;28;20363;-75
2022/02/24 07:00:22;;;;;;;12.00;10.80;;;5.80;99.90;;;;;;4993515;28;20057;-73
2022/02/24 07:02:49;;;;;;;12.65;11.63;;;5.80;99.90;;;;;;4995310;28;20049;-74
2022/02/24 07:05:16;;;;;;;15.30;12.57;;;5.80;99.90;;;;;;5003678;28;20052;-77
2022/02/24 07:07:43;;;;;;;13.90;12.45;;;5.80;99.90;;;;;;5015585;28;20057;-74
2022/02/24 07:10:14;;;;;;;14.00;11.10;;;5.80;99.90;;;;;;4996742;28;20142;-74
2022/02/24 07:12:42;;;;;;;13.20;11.38;;;5.80;99.90;;;;;;4989748;28;20041;-74
2022/02/24 07:15:10;;;;;;;14.55;12.57;;;5.80;99.90;;;;;;4989169;28;20108;-75
2022/02/24 07:17:40;;;;;;;20.83;14.98;;;5.70;99.90;;;;;;4993739;28;20065;-77
2022/02/24 07:20:09;;;;;;;23.92;15.88;;;5.70;99.90;;;;;;4995841;28;20053;-73
2022/02/24 07:22:36;;;;;;;19.30;15.20;;;5.70;99.90;;;;;;4996231;28;20054;-75
2022/02/24 07:25:05;;;;;;;18.85;15.15;;;5.70;99.90;;;;;;4996565;28;20100;-75
2022/02/24 07:27:33;;;;;;;17.02;14.90;;;5.70;99.90;;;;;;4999708;28;20336;-73
2022/02/24 07:30:04;;;;;;;19.35;13.82;;;5.80;99.90;;;;;;4997811;28;20046;-74
2022/02/24 07:32:31;;;;;;;16.40;12.55;;;5.90;99.90;;;;;;4996223;28;20189;-73
2022/02/24 07:34:58;;;;;;;17.52;12.73;;;5.90;99.90;;;;;;4999189;28;20288;-73
2022/02/24 07:37:25;;;;;;;13.50;12.10;;;6.00;99.90;;;;;;4997781;28;20186;-75
2022/02/24 07:39:52;;;;;;;14.85;13.10;;;6.20;99.90;;;;;;4978540;28;20598;-72
2022/02/24 07:42:19;;;;;;;16.02;11.65;;;6.30;99.90;;;;;;4992325;28;20157;-70
2022/02/24 07:44:46;;;;;;;12.75;11.65;;;6.30;99.90;;;;;;4990258;28;20560;-71
2022/02/24 07:47:16;;;;;;;14.40;13.02;;;6.50;99.90;;;;;;4995963;28;20050;-73
2022/02/24 07:49:43;;;;;;;13.50;12.30;;;6.60;99.90;;;;;;4994235;28;20062;-74
2022/02/24 07:52:10;;;;;;;20.25;13.95;;;6.70;99.90;;;;;;4992386;28;20038;-73
2022/02/24 07:54:37;;;;;;;27.13;19.35;;;6.90;99.90;;;;;;4994700;28;20050;-73
2022/02/24 07:57:05;;;;;;;27.95;20.55;;;7.10;99.90;;;;;;4993149;28;20046;-71
2022/02/24 07:59:31;;;;;;;38.03;24.40;;;7.20;99.90;;;;;;4993711;28;20053;-73
2022/02/24 08:02:02;;;;;;;33.75;23.58;;;7.30;99.90;;;;;;4991697;28;20046;-72
2022/02/24 08:04:30;;;;;;;16.48;14.55;;;7.40;99.90;;;;;;4993972;28;20033;-74
2022/02/24 08:06:57;;;;;;;15.95;14.55;;;7.40;99.90;;;;;;4991138;28;20042;-72
2022/02/24 08:09:24;;;;;;;15.75;14.40;;;7.50;99.90;;;;;;4992632;28;20442;-69
2022/02/24 08:14:36;;;;;;;;;;;7.60;99.90;;;;;;4993615;28;20049;-72
2022/02/24 08:17:04;;;;;;;16.13;14.85;;;7.60;99.90;;;;;;4989907;28;19940;-75
2022/02/24 08:19:31;;;;;;;15.85;14.43;;;7.60;99.90;;;;;;4993237;28;20107;-73
2022/02/24 08:21:58;;;;;;;20.45;14.68;;;7.70;99.90;;;;;;4992032;28;20139;-72
2022/02/24 08:24:25;;;;;;;15.32;14.15;;;7.70;99.90;;;;;;4993662;28;20061;-70
2022/02/24 08:26:52;;;;;;;15.63;14.43;;;7.70;99.90;;;;;;4992033;28;20046;-74
2022/02/24 08:29:19;;;;;;;15.38;14.07;;;7.80;99.90;;;;;;4992636;28;20054;-74
2022/02/24 08:31:46;;;;;;;15.85;14.57;;;7.90;99.90;;;;;;4990787;28;20049;-71
2022/02/24 08:34:13;;;;;;;15.73;13.07;;;8.00;99.90;;;;;;4992452;28;20053;-72
2022/02/24 08:36:40;;;;;;;14.57;13.65;;;8.00;99.90;;;;;;4990640;28;20048;-71
2022/02/24 08:39:07;;;;;;;15.52;14.32;;;8.10;99.90;;;;;;4993019;28;20045;-73
2022/02/24 08:41:41;;;;;;;15.10;13.68;;;8.20;99.90;;;;;;4988127;28;20046;-74
2022/02/24 08:44:08;;;;;;;15.32;14.05;;;8.10;99.90;;;;;;4993277;28;20049;-75
2022/02/24 08:46:45;;;;;;;14.88;13.57;;;8.20;99.90;;;;;;4991598;28;20268;-73
2022/02/24 08:49:12;;;;;;;15.02;13.77;;;8.30;99.90;;;;;;4990107;28;20056;-72
2022/02/24 08:51:40;;;;;;;15.38;14.25;;;8.30;99.90;;;;;;4990986;28;20050;-72
2022/02/24 08:54:07;;;;;;;15.93;14.65;;;8.40;99.90;;;;;;4974791;28;20760;-69
2022/02/24 08:56:34;;;;;;;17.30;15.60;;;8.50;99.90;;;;;;5008820;28;20061;-76
2022/02/24 08:59:01;;;;;;;16.40;15.18;;;8.60;99.90;;;;;;5013298;28;20049;-73
2022/02/24 09:01:31;;;;;;;16.15;15.15;;;8.60;99.90;;;;;;5010702;28;20049;-72
2022/02/24 09:03:58;;;;;;;16.58;15.50;;;8.70;99.90;;;;;;4974788;28;20057;-71
2022/02/24 09:06:25;;;;;;;16.70;15.73;;;8.80;99.90;;;;;;4986332;28;20038;-72
2022/02/24 09:08:52;;;;;;;17.65;16.25;;;8.80;99.90;;;;;;4994123;28;20564;-74
2022/02/24 09:11:21;;;;;;;18.48;16.55;;;8.90;99.90;;;;;;4992693;28;20048;-74
2022/02/24 09:13:48;;;;;;;17.02;15.63;;;8.90;99.90;;;;;;4993318;28;20068;-70
2022/02/24 09:16:15;;;;;;;16.27;14.93;;;8.90;99.90;;;;;;4992939;28;20211;-72
2022/02/24 09:18:42;;;;;;;16.30;15.00;;;8.90;99.90;;;;;;4992306;28;20473;-72
2022/02/24 09:21:09;;;;;;;16.40;14.95;;;8.90;99.90;;;;;;5012494;23;20049;-71
2022/02/24 09:23:40;;;;;;;16.15;14.70;;;8.90;99.90;;;;;;4992494;28;20041;-72
2022/02/24 09:26:07;;;;;;;14.85;13.80;;;8.90;99.90;;;;;;5007041;28;20396;-71
2022/02/24 09:28:37;;;;;;;16.25;15.07;;;8.90;99.90;;;;;;5007982;28;20076;-71
2022/02/24 09:31:04;;;;;;;16.38;15.10;;;8.90;99.90;;;;;;5006933;28;20349;-70
2022/02/24 09:33:31;;;;;;;17.30;15.70;;;8.90;99.90;;;;;;5020502;28;20472;-71
2022/02/24 09:35:57;;;;;;;14.70;13.57;;;8.80;99.90;;;;;;5026373;28;20268;-71
2022/02/24 09:38:25;;;;;;;15.93;14.68;;;8.80;99.90;;;;;;5026044;28;20158;-71
2022/02/24 09:40:54;;;;;;;16.17;15.05;;;8.80;99.90;;;;;;5019684;28;20068;-70
2022/02/24 09:43:33;;;;;;;15.75;14.50;;;8.80;99.90;;;;;;5020600;28;20120;-71
2022/02/24 09:46:07;;;;;;;16.02;14.73;;;8.80;99.90;;;;;;5018845;28;20053;-71
2022/02/24 09:48:36;;;;;;;15.60;14.52;;;8.80;99.90;;;;;;5020101;28;20057;-71
2022/02/24 09:51:06;;;;;;;15.30;14.02;;;8.80;99.90;;;;;;5019243;28;20077;-71
2022/02/24 09:53:34;;;;;;;15.77;14.70;;;8.80;99.90;;;;;;5033731;28;20099;-70
2022/02/24 09:56:03;;;;;;;15.15;14.35;;;8.80;99.90;;;;;;5012092;28;20049;-74
2022/02/24 09:58:31;;;;;;;14.60;13.40;;;8.80;99.90;;;;;;4983744;28;20049;-74
2022/02/24 10:01:00;;;;;;;14.18;13.35;;;8.80;99.90;;;;;;5000292;28;20058;-74
2022/02/24 10:03:29;;;;;;;15.25;14.13;;;8.80;99.90;;;;;;4999526;28;20501;-74
2022/02/24 10:05:57;;;;;;;14.57;13.32;;;8.80;99.90;;;;;;4988638;28;20297;-71
2022/02/24 10:08:29;;;;;;;15.63;14.30;;;8.80;99.90;;;;;;5004962;28;20577;-71
2022/02/24 10:10:58;;;;;;;15.00;14.05;;;8.80;99.90;;;;;;4999809;28;20259;-71
2022/02/24 10:13:25;;;;;;;14.93;13.75;;;8.80;99.90;;;;;;4983313;28;20042;-71
2022/02/24 10:15:57;;;;;;;15.23;14.05;;;8.70;99.90;;;;;;5005765;28;20149;-71
2022/02/24 10:18:28;;;;;;;15.15;14.18;;;8.70;99.90;;;;;;5019272;28;20103;-72
2022/02/24 10:20:59;;;;;;;16.35;14.82;;;8.70;99.90;;;;;;5018480;28;20119;-71
2022/02/24 10:23:35;;;;;;;16.23;14.88;;;8.70;99.90;;;;;;5019644;28;20084;-71
2022/02/24 10:26:08;;;;;;;17.55;15.93;;;8.70;99.90;;;;;;5002510;28;20139;-71
2022/02/24 10:28:40;;;;;;;17.50;16.25;;;8.70;99.90;;;;;;5000580;28;20131;-71
2022/02/24 10:31:16;;;;;;;17.38;15.70;;;8.70;99.90;;;;;;5009066;28;20337;-71
2022/02/24 10:33:49;;;;;;;15.98;14.75;;;8.80;99.90;;;;;;5020459;28;20054;-71
2022/02/24 10:36:26;;;;;;;17.02;15.60;;;8.70;99.90;;;;;;5018228;28;20053;-71
2022/02/24 10:38:59;;;;;;;16.38;14.88;;;8.80;99.90;;;;;;5018417;28;20072;-71
2022/02/24 10:41:34;;;;;;;17.35;15.88;;;8.80;99.90;;;;;;5018337;28;20530;-71
2022/02/24 10:44:16;;;;;;;17.10;15.68;;;8.80;99.90;;;;;;5018559;28;20053;-71
2022/02/24 10:46:49;;;;;;;16.27;14.98;;;8.80;99.90;;;;;;5018043;28;20053;-71
2022/02/24 10:49:43;;;;;;;18.05;16.45;;;8.80;99.90;;;;;;4993625;28;20057;-71
2022/02/24 10:52:14;;;;;;;18.40;14.93;;;8.80;99.90;;;;;;5017490;28;20068;-70
2022/02/24 10:54:43;;;;;;;15.85;14.75;;;8.80;99.90;;;;;;5020209;28;20433;-71
2022/02/24 10:57:24;;;;;;;15.88;14.48;;;8.70;99.90;;;;;;5022378;28;20037;-71
2022/02/24 10:59:52;;;;;;;16.98;15.48;;;8.70;99.90;;;;;;5018294;28;20050;-71
2022/02/24 11:02:21;;;;;;;15.50;14.43;;;8.80;99.90;;;;;;5017709;28;20057;-71
2022/02/24 11:04:49;;;;;;;15.20;14.10;;;8.80;99.90;;;;;;5019196;28;20053;-70
2022/02/24 11:07:16;;;;;;;15.38;14.02;;;8.90;99.90;;;;;;5017937;28;20500;-71
2022/02/24 11:09:45;;;;;;;15.82;14.15;;;8.90;99.90;;;;;;5016883;28;20416;-71
2022/02/24 11:12:13;;;;;;;15.40;13.98;;;8.90;99.90;;;;;;5017310;28;20044;-70
2022/02/24 11:14:41;;;;;;;17.25;15.70;;;8.90;99.90;;;;;;5018534;28;20476;-71
2022/02/24 11:17:11;;;;;;;17.30;15.98;;;9.00;99.90;;;;;;5016222;28;20072;-71
2022/02/24 11:19:43;;;;;;;17.67;16.17;;;9.10;99.90;;;;;;5018346;28;20346;-71
2022/02/24 11:22:10;;;;;;;18.15;16.70;;;9.20;99.90;;;;;;5000887;28;20530;-71
2022/02/24 11:24:38;;;;;;;18.50;17.40;;;9.30;99.90;;;;;;5018838;28;20439;-71
2022/02/24 11:27:29;;;;;;;19.88;18.25;;;9.40;99.90;;;;;;5016805;28;20297;-71
2022/02/24 11:30:05;;;;;;;17.67;16.10;;;9.60;99.90;;;;;;5017356;28;20138;-72
2022/02/24 11:32:33;;;;;;;18.98;17.67;;;9.70;99.90;;;;;;5019205;28;20300;-71
2022/02/24 11:35:06;;;;;;;17.75;16.45;;;9.70;99.90;;;;;;5018253;28;20061;-71
2022/02/24 11:37:38;;;;;;;17.83;16.58;;;9.80;99.90;;;;;;5017706;28;20210;-71
2022/02/24 11:40:17;;;;;;;19.05;17.38;;;9.70;99.90;;;;;;5016930;28;20045;-71
2022/02/24 11:42:59;;;;;;;17.20;15.93;;;9.80;99.90;;;;;;5001070;28;20045;-73
2022/02/24 11:45:26;;;;;;;17.48;16.25;;;9.80;99.90;;;;;;5019291;28;20049;-72
2022/02/24 11:48:05;;;;;;;17.23;15.98;;;9.70;99.90;;;;;;5017538;28;20079;-71
2022/02/24 11:50:36;;;;;;;16.17;14.80;;;9.80;99.90;;;;;;5018865;28;20103;-72
2022/02/24 11:53:06;;;;;;;17.10;15.93;;;9.70;99.90;;;;;;4999834;28;20107;-72
2022/02/24 11:55:51;;;;;;;15.25;14.20;;;9.60;99.90;;;;;;5027998;28;20103;-73
2022/02/24 11:58:36;;;;;;;15.57;14.52;;;9.60;99.90;;;;;;5028942;28;20045;-72
2022/02/24 12:01:30;;;;;;;16.70;15.50;;;9.60;99.90;;;;;;5000306;28;20101;-71
2022/02/24 12:04:16;;;;;;;16.58;15.48;;;9.60;99.90;;;;;;4999229;28;20049;-72
2022/02/24 12:06:47;;;;;;;16.85;15.55;;;9.40;99.90;;;;;;5018785;28;20424;-73
2022/02/24 12:09:14;;;;;;;15.85;14.63;;;9.40;99.90;;;;;;5016938;28;20037;-71
2022/02/24 12:11:42;;;;;;;15.02;14.32;;;9.50;99.90;;;;;;5015576;28;20045;-71
2022/02/24 12:14:24;;;;;;;15.68;14.50;;;9.60;99.90;;;;;;5014485;28;20057;-72
2022/02/24 12:17:03;;;;;;;15.30;14.40;;;9.50;99.90;;;;;;5012625;28;20061;-71
2022/02/24 12:19:57;;;;;;;15.85;14.57;;;9.40;99.90;;;;;;5019381;28;20091;-71
2022/02/24 12:22:37;;;;;;;14.20;13.10;;;9.30;99.90;;;;;;4996762;28;20057;-71
2022/02/24 12:25:26;;;;;;;14.05;13.23;;;9.30;99.90;;;;;;5016819;28;20381;-71
2022/02/24 12:28:04;;;;;;;16.58;15.25;;;9.30;99.90;;;;;;5017804;28;20132;-71
2022/02/24 12:30:37;;;;;;;14.35;13.40;;;9.30;99.90;;;;;;5001507;28;20064;-72
2022/02/24 12:33:15;;;;;;;13.75;12.98;;;9.40;99.90;;;;;;5018653;28;20053;-72
2022/02/24 12:35:46;;;;;;;13.35;12.57;;;9.40;99.90;;;;;;5018181;28;20049;-72
2022/02/24 12:38:16;;;;;;;14.98;13.60;;;9.40;99.90;;;;;;5017047;28;20084;-72
2022/02/24 12:40:48;;;;;;;15.00;14.00;;;9.40;99.90;;;;;;5014764;28;20069;-72
2022/02/24 12:43:17;;;;;;;13.27;12.57;;;9.30;99.90;;;;;;5014563;28;20045;-72
2022/02/24 12:45:45;;;;;;;14.75;13.75;;;9.20;99.90;;;;;;5016380;28;20075;-72
2022/02/24 12:48:13;;;;;;;13.85;13.02;;;9.20;99.90;;;;;;5017760;28;20452;-72
2022/02/24 12:50:44;;;;;;;14.35;13.48;;;9.20;99.90;;;;;;5014955;28;20527;-72